Latest Weather Observations for Scottsdale

IDT60801

Issued at 5:11 pm EST Thursday 18 July 2019 (issued every 10 minutes, with the page automatically refreshed every 10 minutes)

About weather observations | Map of weather stations | Latest weather observations for TAS | Other Formats
Station Details ID: 091219 Name: SCOTTSDALE (WEST MINSTONE ROAD) Lat: -41.17 Lon: 147.49 Height: 197.5 m
Data from the previous 72 hours. | See also: Recent months at Scottsdale
Date/Time
EST
Temp
°C
App
Temp
°C
Dew
Point
°C
Rel
Hum
%
Delta-T
°C
Wind Press
QNH
hPa
Press
MSL
hPa
Rain since
9am
mm
Dir  Spd
km/h
Gust
km/h
Spd
kts
Gust
kts
18/05:00pm 8.7 5.8 4.7 76 1.8 WNW 9 15 5 8 1009.3 - 0.0
18/04:30pm 9.1 5.8 4.5 73 2.1 WNW 11 20 6 11 1009.7 - 0.0
18/04:00pm 9.3 5.2 4.5 72 2.2 W 15 26 8 14 1009.8 - 0.0
18/03:30pm 9.5 5.0 4.3 70 2.3 W 17 26 9 14 1009.6 - 0.0
18/03:00pm 9.3 4.2 3.9 69 2.4 W 20 35 11 19 1009.6 1010.1 0.0
18/02:30pm 9.3 5.2 4.5 72 2.2 W 15 22 8 12 1009.7 - 0.0
18/02:00pm 9.2 4.7 4.0 70 2.3 W 17 24 9 13 1010.0 - 0.0
18/01:30pm 9.3 4.8 4.1 70 2.3 W 17 24 9 13 1010.0 - 0.0
18/01:00pm 9.3 5.9 3.9 69 2.4 W 11 17 6 9 1010.3 - 0.0
18/12:30pm 8.9 4.6 3.5 69 2.4 W 15 24 8 13 1010.6 - 0.0
18/12:00pm 8.4 4.0 2.6 67 2.5 WNW 15 20 8 11 1011.0 1011.5 0.0
18/11:30am 7.9 5.2 2.4 68 2.3 WNW 6 9 3 5 1011.1 - 0.0
18/11:00am 7.5 4.8 2.4 70 2.1 WNW 6 11 3 6 1011.6 - 0.0
18/10:30am 7.6 4.4 2.9 72 2.0 ESE 9 11 5 6 1011.5 - 0.0
18/10:00am 6.3 4.5 1.4 71 2.0 CALM 0 4 0 2 1011.7 - 0.0
18/09:30am 6.2 3.0 0.9 69 2.1 NW 7 13 4 7 1011.7 - 0.0
18/09:00am 4.6 1.4 0.6 75 1.6 SW 7 9 4 5 1011.0 1011.5 3.2
18/08:30am 5.2 2.1 0.4 71 1.9 NW 6 13 3 7 1010.4 - 3.2
18/08:00am 4.1 0.0 -0.3 73 1.7 WNW 11 19 6 10 1009.7 - 3.2
18/07:30am 4.3 0.2 -0.1 73 1.7 NNW 11 22 6 12 1009.6 - 3.2
18/07:00am 3.6 -0.5 -0.4 75 1.5 N 11 17 6 9 1008.8 - 3.2
18/06:30am 3.4 -1.1 -0.2 77 1.4 N 13 17 7 9 1008.6 - 3.2
18/06:00am 6.7 1.1 -0.1 62 2.7 SSW 19 24 10 13 1007.9 1008.3 3.2
18/05:30am 5.1 0.3 -0.1 69 2.0 NW 15 22 8 12 1008.1 - 3.2
18/05:00am 5.8 1.4 0.2 67 2.2 W 13 20 7 11 1007.3 - 3.2
18/04:30am 5.9 1.8 0.0 66 2.3 NW 11 15 6 8 1006.8 - 3.2
18/04:00am 5.4 2.1 -0.2 67 2.2 WNW 7 11 4 6 1006.5 - 3.2
18/03:30am 5.5 -0.2 0.5 70 2.0 WSW 20 37 11 20 1005.7 - 3.2
18/03:00am 5.7 -0.7 0.7 70 2.0 WSW 24 35 13 19 1005.9 1006.4 3.2
18/02:30am 5.2 -0.3 0.8 73 1.7 WSW 19 28 10 15 1005.6 - 3.2
18/02:00am 5.4 0.7 0.6 71 1.9 S 15 22 8 12 1005.7 - 3.2
18/01:30am 5.4 1.9 1.1 74 1.7 S 9 24 5 13 1005.3 - 3.2
18/01:00am 5.5 0.9 1.6 76 1.6 WNW 15 20 8 11 1005.0 - 3.2
18/12:30am 6.1 1.5 1.6 73 1.8 W 15 24 8 13 1004.1 - 3.2
18/12:00am 6.5 1.5 1.2 69 2.1 W 17 35 9 19 1004.1 1004.5 3.2
 
Date/Time
EST
Temp
°C
App
Temp
°C
Dew
Point
°C
Rel
Hum
%
Delta-T
°C
Wind Press
QNH
hPa
Press
MSL
hPa
Rain since
9am
mm
Dir  Spd
km/h
Gust
km/h
Spd
kts
Gust
kts
17/11:30pm 6.2 1.2 1.1 70 2.0 W 17 20 9 11 1003.7 - 3.2
17/11:00pm 6.9 1.3 1.2 67 2.3 W 20 32 11 17 1003.9 - 3.2
17/10:30pm 6.9 0.5 1.2 67 2.3 W 24 57 13 31 1003.4 - 3.2
17/10:00pm 7.1 0.8 1.4 67 2.3 W 24 35 13 19 1003.2 - 3.2
17/09:30pm 7.2 0.5 1.7 68 2.3 W 26 43 14 23 1003.1 - 3.2
17/09:00pm 6.9 1.4 2.0 71 2.0 W 20 37 11 20 1002.9 1003.3 3.2
17/08:30pm 7.4 1.3 2.5 71 2.1 W 24 43 13 23 1002.8 - 3.2
17/08:17pm 7.5 0.5 2.2 69 2.2 W 28 57 15 31 1002.7 - 3.2
17/08:00pm 7.7 1.6 2.6 70 2.2 W 24 39 13 21 1002.8 - 3.2
17/07:30pm 8.0 1.5 2.7 69 2.3 W 26 43 14 23 1002.5 - 3.2
17/07:00pm 8.2 2.2 3.3 71 2.1 W 24 46 13 25 1001.9 - 3.2
17/06:54pm 8.5 1.7 3.1 69 2.3 W 28 46 15 25 1001.8 - 3.2
17/06:30pm 7.8 3.1 3.1 72 2.0 W 17 28 9 15 1001.5 - 3.2
17/06:00pm 8.3 2.3 3.2 70 2.2 W 24 46 13 25 1000.8 1001.3 3.2
17/05:56pm 8.5 1.7 3.1 69 2.3 W 28 46 15 25 1000.7 - 3.2
17/05:30pm 8.7 3.5 3.7 71 2.2 W 20 33 11 18 1000.7 - 3.2
17/05:00pm 9.3 1.4 4.5 72 2.2 W 35 54 19 29 1000.3 - 3.2
17/04:56pm 9.3 1.4 4.5 72 2.2 W 35 54 19 29 1000.3 - 3.2
17/04:30pm 9.3 5.2 6.4 82 1.4 W 17 28 9 15 1000.2 - 3.2
17/04:00pm 9.5 3.3 6.0 79 1.6 W 28 44 15 24 1000.1 - 3.2
17/03:30pm 9.5 2.9 6.2 80 1.5 WNW 30 52 16 28 1000.0 - 3.2
17/03:19pm 9.6 3.5 6.7 82 1.4 W 28 48 15 26 999.9 - 3.2
17/03:00pm 9.3 5.2 7.7 90 0.8 WNW 19 28 10 15 1000.2 1000.6 3.2
17/02:30pm 9.2 1.5 7.3 88 0.9 W 37 57 20 31 1000.4 - 3.0
17/02:00pm 9.6 3.7 7.4 86 1.1 WNW 28 52 15 28 1001.1 - 2.0
17/01:30pm 9.7 2.5 7.5 86 1.1 WNW 35 56 19 30 1001.5 - 1.4
17/01:02pm 9.9 4.1 7.8 87 1.0 WNW 28 46 15 25 1001.7 - 0.6
17/01:00pm 9.9 4.1 7.8 87 1.0 WNW 28 43 15 23 1001.8 - 0.4
17/12:30pm 10.4 4.5 7.5 82 1.4 WNW 28 46 15 25 1002.7 - 0.0
17/12:00pm 10.9 4.1 6.8 76 2.0 WNW 32 57 17 31 1003.6 1004.0 0.0
17/11:39am 10.7 4.3 7.0 78 1.8 W 30 48 16 26 1004.2 - 0.0
17/11:30am 10.8 4.0 6.9 77 1.9 WNW 32 46 17 25 1004.4 - 0.0
17/11:14am 11.0 4.2 7.1 77 1.9 W 32 50 17 27 1004.9 - 0.0
17/11:00am 10.3 4.2 6.8 79 1.7 W 28 44 15 24 1005.3 - 0.0
17/10:40am 10.2 4.2 7.1 81 1.5 WNW 28 54 15 29 1005.7 - 0.0
17/10:30am 10.5 5.6 6.8 78 1.8 WNW 22 33 12 18 1005.9 - 0.0
17/10:00am 10.1 4.5 7.2 82 1.4 W 26 48 14 26 1006.3 - 0.0
17/09:45am 9.8 3.8 7.1 83 1.3 W 28 50 15 27 1006.4 - 0.0
17/09:30am 9.5 4.7 7.3 86 1.1 WNW 22 35 12 19 1006.7 - 0.0
17/09:00am 9.3 4.9 6.6 83 1.3 WNW 19 26 10 14 1007.2 1007.7 0.0
17/08:30am 8.7 4.6 6.2 84 1.2 W 17 20 9 11 1007.8 - 0.0
17/08:00am 8.7 4.6 6.2 84 1.2 WNW 17 26 9 14 1008.3 - 0.0
17/07:30am 8.5 3.8 6.1 85 1.1 WNW 20 32 11 17 1008.6 - 0.0
17/07:00am 8.5 3.5 6.3 86 1.0 WNW 22 30 12 16 1008.4 - 0.0
17/06:30am 8.4 3.3 6.2 86 1.0 WNW 22 35 12 19 1008.4 - 0.0
17/06:00am 8.2 4.8 6.0 86 1.0 W 13 32 7 17 1008.8 1009.2 0.0
17/05:30am 7.5 4.7 5.3 86 1.0 NNW 9 17 5 9 1008.9 - 0.0
17/05:00am 8.4 4.6 6.0 85 1.1 W 15 24 8 13 1009.0 - 0.0
17/04:30am 8.7 5.0 6.2 84 1.2 W 15 24 8 13 1009.5 - 0.0
17/04:00am 8.8 5.8 6.2 84 1.2 WNW 11 20 6 11 1009.6 - 0.0
17/03:30am 9.0 5.7 6.4 84 1.2 W 13 22 7 12 1010.1 - 0.0
17/03:00am 9.3 6.1 6.9 85 1.1 W 13 28 7 15 1010.7 1011.2 0.0
17/02:30am 9.3 6.9 7.1 86 1.0 WNW 9 17 5 9 1011.0 - 0.0
17/02:00am 9.3 5.8 7.1 86 1.0 NW 15 22 8 12 1010.8 - 0.0
17/01:30am 9.1 6.7 7.1 87 0.9 NNE 9 15 5 8 1011.3 - 0.0
17/01:00am 9.2 7.2 7.0 86 1.0 N 7 13 4 7 1011.5 - 0.0
17/12:30am 9.2 6.5 7.2 87 1.0 NNE 11 19 6 10 1011.7 - 0.0
17/12:00am 9.1 6.4 7.2 88 0.9 N 11 17 6 9 1012.0 1012.5 0.0
 
Date/Time
EST
Temp
°C
App
Temp
°C
Dew
Point
°C
Rel
Hum
%
Delta-T
°C
Wind Press
QNH
hPa
Press
MSL
hPa
Rain since
9am
mm
Dir  Spd
km/h
Gust
km/h
Spd
kts
Gust
kts
16/11:30pm 9.2 6.5 7.2 87 1.0 N 11 17 6 9 1011.9 - 0.0
16/11:00pm 9.5 6.7 7.1 85 1.1 NW 11 19 6 10 1012.3 - 0.0
16/10:30pm 9.6 6.8 7.0 84 1.2 NW 11 15 6 8 1012.2 - 0.0
16/10:00pm 9.2 5.9 6.6 84 1.2 W 13 20 7 11 1012.7 - 0.0
16/09:30pm 9.4 6.0 6.1 80 1.5 WNW 13 20 7 11 1012.8 - 0.0
16/09:00pm 9.4 6.0 5.9 79 1.6 W 13 20 7 11 1012.7 1013.1 0.0
16/08:30pm 9.8 6.1 6.2 78 1.7 W 15 20 8 11 1012.8 - 0.0
16/08:00pm 10.0 6.7 6.3 78 1.7 WNW 13 20 7 11 1012.8 - 0.0
16/07:30pm 9.7 6.7 6.2 79 1.6 WNW 11 17 6 9 1012.5 - 0.0
16/07:00pm 9.5 6.6 6.4 81 1.5 WNW 11 13 6 7 1012.1 - 0.0
16/06:30pm 9.6 6.3 6.5 81 1.5 WNW 13 17 7 9 1012.0 - 0.0
16/06:00pm 9.7 6.2 7.0 83 1.3 NW 15 19 8 10 1011.6 1012.1 0.0
16/05:30pm 10.4 6.5 6.9 79 1.7 NW 17 24 9 13 1011.3 - 0.0
16/05:00pm 11.4 7.5 7.1 75 2.1 WNW 17 28 9 15 1010.7 - 0.0
16/04:30pm 12.5 9.4 7.2 70 2.6 NW 13 19 7 10 1010.6 - 0.0
16/04:00pm 13.4 9.3 6.0 61 3.5 WNW 17 22 9 12 1010.5 - 0.0
16/03:30pm 13.9 9.8 6.3 60 3.7 W 17 28 9 15 1010.2 - 0.0
16/03:00pm 13.9 9.9 6.5 61 3.6 WNW 17 26 9 14 1010.1 1010.6 0.0
16/02:30pm 14.2 10.1 6.3 59 3.8 W 17 26 9 14 1009.9 - 0.0
16/02:00pm 14.8 11.8 7.8 63 3.5 WNW 13 20 7 11 1009.9 - 0.0
16/01:30pm 14.2 11.2 7.7 65 3.2 W 13 17 7 9 1010.2 - 0.0
16/01:00pm 13.4 10.9 8.0 70 2.7 WNW 11 19 6 10 1010.4 - 0.0
16/12:30pm 13.2 10.1 7.4 68 2.9 W 13 20 7 11 1010.6 - 0.0
16/12:00pm 12.8 10.7 8.1 73 2.3 NW 9 13 5 7 1010.8 1011.3 0.0
16/11:30am 12.2 9.6 7.9 75 2.1 NW 11 17 6 9 1011.1 - 0.0
16/11:00am 11.4 8.9 8.3 81 1.5 NNW 11 15 6 8 1011.3 - 0.0
16/10:30am 11.0 8.5 8.0 82 1.5 NNW 11 15 6 8 1011.3 - 0.0
16/10:00am 10.4 8.4 7.1 80 1.6 NNW 7 13 4 7 1011.3 - 0.0
16/09:30am 10.8 8.8 7.1 78 1.8 NNW 7 11 4 6 1011.3 - 0.0
16/09:00am 9.2 6.3 6.6 84 1.2 N 11 15 6 8 1010.9 1011.4 0.0
16/08:30am 8.6 6.0 6.2 85 1.1 N 9 15 5 8 1010.9 - 0.0
16/08:00am 7.9 4.4 5.5 85 1.1 NNW 13 17 7 9 1010.6 - 0.0
16/07:30am 7.1 3.4 4.2 82 1.3 N 13 17 7 9 1010.3 - 0.0
16/07:00am 7.4 4.5 4.5 82 1.3 N 9 15 5 8 1010.2 - 0.0
16/06:30am 8.1 4.4 4.7 79 1.5 W 13 24 7 13 1009.4 - 0.0
16/06:00am 7.8 4.6 4.9 82 1.3 WNW 11 17 6 9 1009.5 1010.0 0.0
16/05:30am 7.7 4.9 5.2 84 1.1 W 9 15 5 8 1009.2 - 0.0
16/05:00am 8.4 5.2 5.2 80 1.4 N 11 19 6 10 1009.0 - 0.0
16/04:30am 7.5 3.2 5.1 85 1.1 NNE 17 20 9 11 1009.2 - 0.0
16/04:00am 8.6 5.4 5.0 78 1.6 W 11 20 6 11 1009.3 - 0.0
16/03:30am 8.8 4.4 5.0 77 1.7 W 17 28 9 15 1009.3 - 0.0
16/03:00am 9.2 5.6 5.2 76 1.8 WNW 13 24 7 13 1009.6 1010.1 0.0
16/02:30am 9.3 4.4 5.1 75 1.9 W 20 28 11 15 1009.4 - 0.0
16/02:00am 8.9 5.4 5.3 78 1.6 NNW 13 20 7 11 1009.5 - 0.0
16/01:30am 8.2 5.4 5.0 80 1.4 E 9 15 5 8 1009.5 - 0.0
16/01:00am 7.3 3.6 4.3 81 1.3 N 13 15 7 8 1009.7 - 0.0
16/12:30am 11.0 6.1 4.9 66 2.8 W 20 39 11 21 1009.4 - 0.0
16/12:00am 10.3 5.6 5.1 70 2.4 W 19 39 10 21 1009.1 1009.6 0.0
 
Date/Time
EST
Temp
°C
App
Temp
°C
Dew
Point
°C
Rel
Hum
%
Delta-T
°C
Wind Press
QNH
hPa
Press
MSL
hPa
Rain since
9am
mm
Dir  Spd
km/h
Gust
km/h
Spd
kts
Gust
kts
15/11:30pm 9.9 6.7 4.9 71 2.3 W 11 24 6 13 1009.2 - 0.0
15/11:00pm 9.9 5.9 5.1 72 2.2 WSW 15 26 8 14 1009.4 - 0.0
15/10:30pm 10.4 6.5 5.4 71 2.3 W 15 24 8 13 1009.2 - 0.0
15/10:00pm 10.3 5.4 5.3 71 2.3 W 20 37 11 20 1009.2 - 0.0
15/09:30pm 7.8 5.5 4.7 81 1.4 N 6 11 3 6 1009.2 - 0.0
15/09:00pm 8.4 5.5 4.4 76 1.8 NNW 9 15 5 8 1008.9 1009.3 0.0
15/08:30pm 10.0 5.2 5.4 73 2.1 W 20 41 11 22 1008.5 - 0.0
15/08:00pm 9.3 4.4 5.1 75 1.9 W 20 35 11 19 1008.3 - 0.0
15/07:30pm 9.5 4.7 5.5 76 1.8 W 20 30 11 16 1008.4 - 0.0
15/07:00pm 9.6 5.5 6.1 79 1.6 W 17 26 9 14 1008.1 - 0.0
15/06:30pm 9.9 5.0 7.0 82 1.4 W 22 37 12 20 1007.9 - 0.0
15/06:00pm 9.9 5.5 7.5 85 1.2 W 20 32 11 17 1008.1 1008.5 0.0
15/05:30pm 10.2 5.9 7.8 85 1.2 W 20 30 11 16 1008.3 - 0.0

Other formats

Comma delimited format used in spreadsheet applications
http://www.bom.gov.au/fwo/IDT60801/IDT60801.94972.axf

JavaScript Object Notation format (JSON) in row-major order
http://www.bom.gov.au/fwo/IDT60801/IDT60801.94972.json

Data quality

Most of these data are generated automatically and are frequently updated. Quality checks on data are not normally performed. It is possible for incorrect values to appear. Refer to information at About Latest Weather Observations and please check the disclaimer before using these data.